This is the latest recevied weather packets stored in our database for station/object KC8JWT. If no packets are shown the sender has not sent any weather packets the latest 1 day(s).
| Time | Temp. | Humidity | Pressure | Rain* | Wind** | Luminosity | Snow |
|---|---|---|---|---|---|---|---|
| 1777985536 | 21.11° C | 62% | 1010.7 hPa | 0 mm | 0.89 m/s, 167° | 262 W/m² | - |
| 1777985232 | 21.11° C | 65% | 1010.5 hPa | 0 mm | 2.24 m/s, 182° | 281 W/m² | - |
| 1777984929 | 20.56° C | 65% | 1010.5 hPa | 0 mm | 1.34 m/s, 139° | 222 W/m² | - |
| 1777984625 | 20° C | 66% | 1010.7 hPa | 0 mm | 1.79 m/s, 142° | 218 W/m² | - |
| 1777984322 | 20° C | 66% | 1010.2 hPa | 0 mm | 3.13 m/s, 209° | 207 W/m² | - |
| 1777984018 | 19.44° C | 68% | 1010.1 hPa | 0 mm | 1.79 m/s, 263° | 184 W/m² | - |
| 1777983715 | 19.44° C | 68% | 1010.2 hPa | 0 mm | 1.34 m/s, 148° | 107 W/m² | - |
| 1777983407 | 20° C | 67% | 1009.9 hPa | 0 mm | 3.13 m/s, 183° | 108 W/m² | - |
| 1777983103 | 20.56° C | 66% | 1010.1 hPa | 0 mm | 1.79 m/s, 213° | 150 W/m² | - |
| 1777982799 | 20.56° C | 67% | 1010 hPa | 0 mm | 0 m/s | 173 W/m² | - |
| 1777982495 | 20.56° C | 66% | 1009.9 hPa | 0 mm | 0.45 m/s, 89° | 156 W/m² | - |
| 1777982189 | 20° C | 66% | 1009.9 hPa | 0 mm | 3.13 m/s, 224° | 155 W/m² | - |
| 1777981887 | 20° C | 68% | 1009.8 hPa | 0 mm | 0.89 m/s, 159° | 183 W/m² | - |
| 1777981584 | 20° C | 68% | 1009.9 hPa | 0 mm | 2.24 m/s, 174° | 146 W/m² | - |
| 1777981280 | 19.44° C | 68% | 1009.8 hPa | 0 mm | 1.79 m/s, 201° | 118 W/m² | - |
| 1777980977 | 19.44° C | 68% | 1009.8 hPa | 0 mm | 3.13 m/s, 310° | 98 W/m² | - |
| 1777980673 | 18.89° C | 70% | 1009.7 hPa | 0 mm | 1.79 m/s, 172° | 75 W/m² | - |
| 1777980370 | 18.33° C | 70% | 1010 hPa | 0 mm | 0.45 m/s, 104° | 66 W/m² | - |
| 1777980069 | 18.33° C | 72% | 1009.6 hPa | 0 mm | 0 m/s | 55 W/m² | - |
| 1777979767 | 17.78° C | 72% | 1009.7 hPa | 0 mm | 1.34 m/s, 149° | 48 W/m² | - |
| 1777979463 | 17.78° C | 73% | 1009.7 hPa | 0 mm | 0.89 m/s, 206° | 36 W/m² | - |
| 1777979160 | 17.78° C | 73% | 1009.6 hPa | 0 mm | 0.89 m/s, 144° | 34 W/m² | - |
| 1777978857 | 17.78° C | 73% | 1009.8 hPa | 0 mm | 0.89 m/s, 171° | 25 W/m² | - |
| 1777978554 | 17.78° C | 73% | 1009.6 hPa | 0 mm | 0 m/s | 16 W/m² | - |
| 1777978249 | 17.78° C | 73% | 1009.9 hPa | 0 mm | 0.89 m/s, 176° | 10 W/m² | - |
* Rain latest hour (hover to see other rain measurements)
** Current wind speed in m/s (hover to see current wind gust speed)